Time;durP1;ratioP1;P1;durP2;ratioP2;P2;SDS_P1;SDS_P2;PMS_P1;PMS_P2;Temp;Humidity;BMP_temperature;BMP_pressure;BME280_temperature;BME280_humidity;BME280_pressure;Samples;Min_cycle;Max_cycle;Signal;HPM_P1;HPM_P2
2021/03/20 00:00:44;;;;;;;13.57;1.98;;;18.10;99.90;;;;;;5074891;28;20414;-84
2021/03/20 00:03:11;;;;;;;17.93;2.30;;;18.00;99.90;;;;;;5066578;28;20506;-85
2021/03/20 00:05:38;;;;;;;16.85;2.22;;;18.00;99.90;;;;;;5079693;28;20473;-86
2021/03/20 00:08:07;;;;;;;16.85;2.42;;;18.00;99.90;;;;;;5067352;28;20444;-87
2021/03/20 00:10:35;;;;;;;19.55;3.10;;;18.10;99.90;;;;;;5071205;28;20390;-85
2021/03/20 00:13:03;;;;;;;21.92;2.78;;;18.10;99.90;;;;;;5081773;28;20388;-85
2021/03/20 00:15:30;;;;;;;20.03;2.63;;;18.10;99.90;;;;;;5068371;28;20389;-85
2021/03/20 00:17:57;;;;;;;27.25;3.90;;;18.10;99.90;;;;;;5075401;28;20385;-86
2021/03/20 00:20:30;;;;;;;25.50;3.05;;;18.10;99.90;;;;;;5073521;28;20396;-85
2021/03/20 00:22:58;;;;;;;34.13;4.18;;;18.20;99.90;;;;;;5074273;28;20784;-85
2021/03/20 00:25:25;;;;;;;33.92;3.50;;;18.20;99.90;;;;;;5067502;28;20466;-85
2021/03/20 00:27:53;;;;;;;18.98;2.90;;;18.20;99.90;;;;;;5073392;28;20392;-88
2021/03/20 00:30:21;;;;;;;27.33;3.45;;;18.30;99.90;;;;;;5081283;28;20420;-86
2021/03/20 00:32:48;;;;;;;20.05;2.47;;;18.30;99.90;;;;;;5075728;28;20394;-87
2021/03/20 00:35:16;;;;;;;21.02;3.00;;;18.40;99.90;;;;;;5067337;28;20398;-88
2021/03/20 00:37:44;;;;;;;23.00;3.17;;;18.40;99.90;;;;;;5069094;28;20769;-88
2021/03/20 00:40:14;;;;;;;25.02;3.00;;;18.40;99.90;;;;;;5074210;28;20901;-83
2021/03/20 00:42:41;;;;;;;18.47;2.70;;;18.50;99.90;;;;;;5082539;28;20392;-85
2021/03/20 00:45:10;;;;;;;25.05;3.45;;;18.50;99.90;;;;;;5086318;28;20495;-88
2021/03/20 00:47:37;;;;;;;22.92;3.30;;;18.50;99.90;;;;;;5072389;28;20394;-87
2021/03/20 00:50:07;;;;;;;19.00;3.15;;;18.50;99.90;;;;;;5076773;28;20745;-86
2021/03/20 00:52:34;;;;;;;27.52;4.43;;;18.60;99.90;;;;;;5080376;28;20386;-85
2021/03/20 00:55:01;;;;;;;34.50;5.35;;;18.70;99.90;;;;;;5077242;28;20396;-85
2021/03/20 00:57:28;;;;;;;35.55;4.80;;;18.70;99.90;;;;;;5064995;28;20386;-85
2021/03/20 00:59:55;;;;;;;30.77;4.78;;;18.70;99.90;;;;;;5068934;28;20877;-82
2021/03/20 01:02:22;;;;;;;34.92;4.28;;;18.70;99.90;;;;;;5072073;28;20372;-88
2021/03/20 01:04:49;;;;;;;24.50;3.92;;;18.70;99.90;;;;;;5084116;28;20411;-88
2021/03/20 01:07:16;;;;;;;21.30;3.00;;;18.50;99.90;;;;;;5074786;28;20758;-89
2021/03/20 01:09:44;;;;;;;14.75;2.13;;;18.50;99.90;;;;;;5071457;28;20390;-87
2021/03/20 01:12:11;;;;;;;6.90;1.50;;;18.50;99.90;;;;;;5071065;28;20469;-86
2021/03/20 01:14:38;;;;;;;9.00;1.42;;;18.40;99.90;;;;;;5069785;28;20405;-85
2021/03/20 01:17:05;;;;;;;4.88;0.70;;;18.40;99.90;;;;;;5070638;28;20515;-88
2021/03/20 01:19:32;;;;;;;4.50;0.80;;;18.40;99.90;;;;;;5102817;27;20825;-82
2021/03/20 01:21:59;;;;;;;9.55;1.50;;;18.50;99.90;;;;;;5073919;28;20878;-82
2021/03/20 01:24:26;;;;;;;12.05;1.60;;;18.50;99.90;;;;;;5074911;28;20528;-86
2021/03/20 01:26:53;;;;;;;13.18;1.70;;;18.50;99.90;;;;;;5072684;28;20489;-84
2021/03/20 01:29:20;;;;;;;11.70;1.70;;;18.60;99.90;;;;;;5084015;28;20456;-90
2021/03/20 01:31:47;;;;;;;13.98;1.67;;;18.60;99.90;;;;;;5072836;28;20390;-89
2021/03/20 01:34:13;;;;;;;4.47;1.13;;;18.60;99.90;;;;;;5072462;28;20860;-89
2021/03/20 01:36:40;;;;;;;6.70;1.33;;;18.60;99.90;;;;;;5071310;28;20413;-85
2021/03/20 01:39:07;;;;;;;15.93;2.77;;;18.60;99.90;;;;;;5072228;28;20505;-88
2021/03/20 01:41:34;;;;;;;30.95;4.57;;;18.70;99.90;;;;;;5072373;28;20417;-87
2021/03/20 01:44:01;;;;;;;33.97;4.57;;;18.80;99.90;;;;;;5072740;28;20741;-87
2021/03/20 01:46:49;;;;;;;33.97;5.28;;;18.80;99.90;;;;;;5072131;28;20582;-86
2021/03/20 01:49:45;;;;;;;46.03;5.63;;;18.90;99.90;;;;;;5052115;28;20739;-86
2021/03/20 01:52:30;;;;;;;31.20;4.97;;;18.90;99.90;;;;;;5072586;28;20869;-89
2021/03/20 01:55:08;;;;;;;38.97;4.90;;;18.90;99.90;;;;;;5073750;28;20390;-87
2021/03/20 01:58:02;;;;;;;24.73;3.53;;;18.90;99.90;;;;;;5072921;28;20853;-87
2021/03/20 02:00:38;;;;;;;20.55;2.85;;;18.80;99.90;;;;;;5065581;28;20412;-87
2021/03/20 02:03:10;;;;;;;23.05;2.88;;;18.70;99.90;;;;;;5072099;28;20915;-87
2021/03/20 02:05:38;;;;;;;12.73;2.20;;;18.70;99.90;;;;;;5075875;28;20488;-87
2021/03/20 02:08:07;;;;;;;18.88;2.17;;;18.60;99.90;;;;;;5077954;28;20438;-87
2021/03/20 02:10:38;;;;;;;15.60;2.53;;;18.70;99.90;;;;;;5072494;28;20383;-86
2021/03/20 02:13:33;;;;;;;17.87;2.57;;;18.60;99.90;;;;;;5072613;28;20384;-89
2021/03/20 02:16:15;;;;;;;25.10;2.80;;;18.60;99.90;;;;;;5083893;28;20402;-89
2021/03/20 02:19:01;;;;;;;26.15;3.08;;;18.60;99.90;;;;;;5070658;28;20382;-86
2021/03/20 02:21:41;;;;;;;23.88;3.63;;;18.60;99.90;;;;;;5068643;28;21049;-88
2021/03/20 02:24:54;;;;;;;21.02;3.00;;;18.60;99.90;;;;;;5063550;28;20543;-88
2021/03/20 02:27:45;;;;;;;29.67;3.42;;;18.60;99.90;;;;;;5070516;28;20395;-88
2021/03/20 02:30:43;;;;;;;22.63;2.92;;;18.60;99.90;;;;;;5071152;28;20401;-84
2021/03/20 02:33:35;;;;;;;15.13;2.33;;;18.60;99.90;;;;;;5077003;28;20455;-92
2021/03/20 02:36:07;;;;;;;15.85;2.20;;;18.50;99.90;;;;;;5073573;28;20417;-84
2021/03/20 02:38:52;;;;;;;19.88;2.13;;;18.50;99.90;;;;;;5086662;28;20479;-84
2021/03/20 02:41:52;;;;;;;19.40;2.42;;;18.50;99.90;;;;;;5074040;28;21029;-85
2021/03/20 02:44:54;;;;;;;19.05;2.40;;;18.60;99.90;;;;;;5071118;28;20948;-91
2021/03/20 02:47:28;;;;;;;24.33;2.88;;;18.50;99.90;;;;;;5082019;28;20412;-89
2021/03/20 02:49:58;;;;;;;30.85;3.25;;;18.50;99.90;;;;;;5082716;28;20390;-89
2021/03/20 02:52:43;;;;;;;33.95;2.90;;;18.40;99.90;;;;;;5064284;28;20764;-90
2021/03/20 02:55:52;;;;;;;32.00;3.53;;;18.50;99.90;;;;;;5073145;28;20398;-89
2021/03/20 02:58:22;;;;;;;28.15;3.17;;;18.50;99.90;;;;;;5062811;28;20436;-86
2021/03/20 03:00:58;;;;;;;25.92;3.00;;;18.50;99.90;;;;;;5070976;28;20435;-91
2021/03/20 03:03:36;;;;;;;15.40;2.03;;;18.60;99.90;;;;;;5075166;28;20399;-86
2021/03/20 03:06:15;;;;;;;15.63;2.15;;;18.50;99.90;;;;;;5079103;28;20742;-90
2021/03/20 03:08:50;;;;;;;13.02;2.00;;;18.40;99.90;;;;;;5077253;28;20405;-89
2021/03/20 03:11:25;;;;;;;11.95;1.80;;;18.40;99.90;;;;;;5070646;28;20611;-89
2021/03/20 03:14:16;;;;;;;17.27;2.20;;;18.40;99.90;;;;;;5078361;28;20398;-86
2021/03/20 03:16:50;;;;;;;20.77;2.10;;;18.40;99.90;;;;;;5077124;28;20386;-88
2021/03/20 03:20:01;;;;;;;15.90;2.42;;;18.50;99.90;;;;;;5079558;28;20393;-88
2021/03/20 03:22:58;;;;;;;9.27;1.50;;;18.40;99.90;;;;;;5052942;28;20404;-87
2021/03/20 03:25:27;;;;;;;10.70;1.70;;;18.40;99.90;;;;;;5072960;28;20790;-86
2021/03/20 03:27:59;;;;;;;10.13;1.70;;;18.40;99.90;;;;;;5084519;28;20390;-86
2021/03/20 03:30:27;;;;;;;10.20;1.48;;;18.40;99.90;;;;;;5077005;28;20412;-87
2021/03/20 03:33:20;;;;;;;10.75;1.60;;;18.40;99.90;;;;;;5068977;28;20373;-85
2021/03/20 03:35:51;;;;;;;8.73;1.40;;;18.40;99.90;;;;;;5064184;28;20467;-85
2021/03/20 03:38:21;;;;;;;11.75;1.95;;;18.40;99.90;;;;;;5080973;28;20411;-84
2021/03/20 03:40:57;;;;;;;13.30;2.03;;;18.50;99.90;;;;;;5074484;28;20890;-86
2021/03/20 03:43:24;;;;;;;11.65;1.77;;;18.50;99.90;;;;;;5078658;28;20449;-84
2021/03/20 03:45:52;;;;;;;9.27;1.40;;;18.50;99.90;;;;;;5076763;28;20785;-82
2021/03/20 03:48:22;;;;;;;7.30;1.33;;;18.50;99.90;;;;;;5054337;28;20409;-85
2021/03/20 03:50:50;;;;;;;5.73;0.90;;;18.50;99.90;;;;;;5065110;28;20394;-82
2021/03/20 03:53:28;;;;;;;4.17;0.57;;;18.40;99.90;;;;;;5083888;28;20376;-82
2021/03/20 03:56:00;;;;;;;4.82;0.77;;;18.30;99.90;;;;;;5066870;28;20394;-83
2021/03/20 03:58:54;;;;;;;2.53;0.60;;;18.20;99.90;;;;;;5063383;28;20408;-84
2021/03/20 04:01:43;;;;;;;2.30;0.43;;;18.20;99.90;;;;;;5060216;28;21070;-85
2021/03/20 04:04:19;;;;;;;3.00;0.57;;;18.10;99.90;;;;;;5066354;28;20385;-84
2021/03/20 04:07:02;;;;;;;3.70;0.60;;;18.10;99.90;;;;;;5065319;28;20493;-83
2021/03/20 04:09:47;;;;;;;4.60;0.60;;;18.10;99.90;;;;;;5063768;28;20431;-84
2021/03/20 04:12:34;;;;;;;5.80;0.68;;;18.00;99.90;;;;;;5078533;28;20718;-82
2021/03/20 04:15:19;;;;;;;5.93;0.88;;;18.00;99.90;;;;;;5071574;28;20425;-84
2021/03/20 04:18:02;;;;;;;4.47;0.65;;;18.00;99.90;;;;;;5065029;28;20869;-84
2021/03/20 04:21:04;;;;;;;3.97;0.50;;;18.00;99.90;;;;;;5065067;28;20386;-84
2021/03/20 04:23:35;;;;;;;5.82;0.77;;;18.00;99.90;;;;;;5068112;28;20420;-83
2021/03/20 04:26:29;;;;;;;5.45;0.70;;;17.90;99.90;;;;;;5069564;28;20421;-86
2021/03/20 04:29:09;;;;;;;4.30;0.80;;;17.90;99.90;;;;;;5069167;28;21234;-84
2021/03/20 04:31:48;;;;;;;5.60;0.93;;;17.90;99.90;;;;;;5067310;28;20477;-83
2021/03/20 04:34:18;;;;;;;4.40;1.10;;;17.90;99.90;;;;;;5070530;28;20506;-83
2021/03/20 04:36:57;;;;;;;7.87;1.13;;;17.80;99.90;;;;;;5069209;28;20459;-83
2021/03/20 04:39:27;;;;;;;5.50;1.00;;;17.80;99.90;;;;;;5061514;28;20731;-83
2021/03/20 04:41:55;;;;;;;8.25;0.98;;;17.80;99.90;;;;;;5083930;28;20860;-85
2021/03/20 04:44:23;;;;;;;6.72;1.00;;;17.90;99.90;;;;;;5081356;28;20822;-84
2021/03/20 04:46:51;;;;;;;8.50;1.08;;;17.80;99.90;;;;;;5071792;28;20459;-86
2021/03/20 04:49:36;;;;;;;7.55;0.93;;;17.80;99.90;;;;;;5075821;28;20385;-85
2021/03/20 04:52:15;;;;;;;11.45;0.98;;;17.90;99.90;;;;;;5064768;28;20413;-87
2021/03/20 04:54:42;;;;;;;11.18;1.50;;;17.90;99.90;;;;;;5080425;28;20396;-88
2021/03/20 04:57:33;;;;;;;7.10;1.33;;;17.90;99.90;;;;;;5086658;28;20461;-85
2021/03/20 05:00:11;;;;;;;9.15;1.17;;;17.90;99.90;;;;;;5075835;28;20418;-86
2021/03/20 05:02:59;;;;;;;12.48;1.45;;;17.90;99.90;;;;;;5084000;28;20433;-89
2021/03/20 05:06:01;;;;;;;5.82;1.08;;;17.90;99.90;;;;;;5082205;28;20393;-92
2021/03/20 05:09:04;;;;;;;7.53;1.17;;;17.80;99.90;;;;;;5074157;28;20459;-86
2021/03/20 05:11:39;;;;;;;9.52;2.00;;;17.90;99.90;;;;;;5066844;28;20396;-86
2021/03/20 05:14:16;;;;;;;12.25;1.77;;;18.00;99.90;;;;;;5090212;28;20399;-88
2021/03/20 05:16:56;;;;;;;16.85;2.30;;;18.20;99.90;;;;;;5083038;28;20465;-85
2021/03/20 05:19:25;;;;;;;22.02;3.08;;;18.30;99.90;;;;;;5077101;28;20398;-86
2021/03/20 05:21:54;;;;;;;25.38;3.10;;;18.40;99.90;;;;;;5074750;28;20429;-87
2021/03/20 05:24:28;;;;;;;25.95;3.78;;;18.50;99.90;;;;;;5073606;28;20395;-87
2021/03/20 05:26:57;;;;;;;29.70;3.75;;;18.60;99.90;;;;;;5079222;28;20779;-87
2021/03/20 05:29:26;;;;;;;43.25;5.82;;;18.70;99.90;;;;;;5056124;28;20459;-85
2021/03/20 05:31:53;;;;;;;48.63;5.55;;;18.80;99.90;;;;;;5064252;28;20755;-87
2021/03/20 05:34:26;;;;;;;32.67;4.43;;;19.00;99.90;;;;;;5082908;28;20386;-86
2021/03/20 05:36:53;;;;;;;35.97;4.65;;;19.00;99.90;;;;;;5059349;28;20398;-88
2021/03/20 05:39:22;;;;;;;36.38;5.00;;;19.00;99.90;;;;;;5083413;28;20396;-86
2021/03/20 05:42:27;;;;;;;49.85;6.22;;;19.00;99.90;;;;;;5069135;28;20385;-88
2021/03/20 05:45:00;;;;;;;34.67;4.43;;;19.00;99.90;;;;;;5059698;28;20398;-88
2021/03/20 05:47:39;;;;;;;34.15;4.53;;;19.00;99.90;;;;;;5056688;28;20404;-91
2021/03/20 05:50:32;;;;;;;36.15;4.55;;;18.90;99.90;;;;;;5088173;28;20384;-89
2021/03/20 05:53:17;;;;;;;38.90;4.65;;;18.90;99.90;;;;;;5073142;28;20386;-89
2021/03/20 05:55:55;;;;;;;31.40;3.80;;;18.90;99.90;;;;;;5073455;28;20475;-92
2021/03/20 05:58:47;;;;;;;35.60;4.28;;;19.00;99.90;;;;;;5073028;28;20374;-90
2021/03/20 06:01:44;;;;;;;29.85;3.95;;;19.00;99.90;;;;;;5069978;28;20757;-88
2021/03/20 06:04:11;;;;;;;31.92;4.53;;;19.00;99.90;;;;;;5069080;28;20871;-89
2021/03/20 06:06:56;;;;;;;37.13;4.82;;;19.00;99.90;;;;;;5075943;28;20408;-86
2021/03/20 06:09:55;;;;;;;49.72;5.43;;;19.00;99.90;;;;;;5088971;28;21158;-87
2021/03/20 06:12:47;;;;;;;33.10;4.38;;;19.00;99.90;;;;;;5085849;28;20397;-88
2021/03/20 06:15:18;;;;;;;42.35;5.10;;;19.00;99.90;;;;;;5068302;28;20382;-88
2021/03/20 06:18:19;;;;;;;35.33;5.15;;;19.00;99.90;;;;;;5062923;28;20378;-89
2021/03/20 06:21:10;;;;;;;37.20;4.60;;;19.00;99.90;;;;;;5068222;28;20416;-91
2021/03/20 06:24:24;;;;;;;37.72;4.97;;;19.00;99.90;;;;;;5058139;28;20729;-91
2021/03/20 06:26:52;;;;;;;33.05;4.15;;;19.00;99.90;;;;;;5065514;28;20436;-88
2021/03/20 06:29:25;;;;;;;33.35;4.13;;;19.00;99.90;;;;;;5068066;28;20477;-92
2021/03/20 06:32:21;;;;;;;29.92;4.25;;;19.00;99.90;;;;;;5068669;28;20757;-87
2021/03/20 06:34:58;;;;;;;35.42;4.63;;;19.00;99.90;;;;;;5061825;28;20397;-95
2021/03/20 06:37:29;;;;;;;38.60;5.30;;;19.00;99.90;;;;;;4941739;28;3319064;-93
2021/03/20 06:40:16;;;;;;;53.35;6.85;;;19.10;99.90;;;;;;5036507;28;20397;-94
2021/03/20 06:42:45;;;;;;;60.60;7.20;;;19.10;99.90;;;;;;5037326;28;20934;-95
2021/03/20 06:45:27;;;;;;;58.28;7.70;;;19.10;99.90;;;;;;5048458;28;20393;-91
2021/03/20 06:47:58;;;;;;;55.95;7.60;;;19.10;99.90;;;;;;5045181;28;20386;-95
2021/03/20 06:50:37;;;;;;;50.20;7.70;;;19.10;99.90;;;;;;5039716;28;20372;-92
2021/03/20 06:53:10;;;;;;;48.33;6.87;;;19.10;99.90;;;;;;5053298;28;20564;-90
2021/03/20 06:55:41;;;;;;;54.85;7.72;;;19.10;99.90;;;;;;5065089;28;20386;-92
2021/03/20 06:58:28;;;;;;;50.60;7.00;;;19.10;99.90;;;;;;5073939;28;20370;-90
2021/03/20 07:00:56;;;;;;;49.47;7.53;;;19.10;99.90;;;;;;5070216;28;20426;-88
2021/03/20 07:03:59;;;;;;;51.38;7.47;;;19.20;99.90;;;;;;5085882;28;20512;-88
2021/03/20 07:07:00;;;;;;;58.72;7.43;;;19.20;99.90;;;;;;5088603;28;20402;-83
2021/03/20 07:09:27;;;;;;;51.58;7.35;;;19.20;99.90;;;;;;5058737;28;20862;-82
2021/03/20 07:12:11;;;;;;;60.85;8.75;;;19.10;99.90;;;;;;5066804;28;20414;-86
2021/03/20 07:14:44;;;;;;;51.53;7.00;;;19.10;99.90;;;;;;5054617;28;20829;-86
2021/03/20 07:17:26;;;;;;;49.67;7.15;;;19.00;99.90;;;;;;5055366;28;20425;-86
2021/03/20 07:20:07;;;;;;;55.30;7.78;;;18.90;99.90;;;;;;5049806;28;20411;-83
2021/03/20 07:22:42;;;;;;;47.65;8.02;;;18.90;99.90;;;;;;5047203;28;20800;-83
2021/03/20 07:25:21;;;;;;;64.57;9.65;;;18.80;99.90;;;;;;5061563;28;20409;-85
2021/03/20 07:27:48;;;;;;;87.38;11.90;;;18.80;99.90;;;;;;5050604;28;20395;-85
2021/03/20 07:30:42;;;;;;;82.90;12.30;;;18.90;99.90;;;;;;5060128;28;20378;-84
2021/03/20 07:33:26;;;;;;;92.95;14.35;;;19.00;99.90;;;;;;5041393;28;20436;-84
2021/03/20 07:35:55;;;;;;;102.88;16.17;;;19.10;99.90;;;;;;5054289;28;20393;-85
2021/03/20 07:38:29;;;;;;;99.47;14.18;;;19.10;99.90;;;;;;5064482;28;20407;-83
2021/03/20 07:41:09;;;;;;;104.88;14.45;;;19.10;99.90;;;;;;5064638;28;20401;-85
2021/03/20 07:43:36;;;;;;;91.93;12.95;;;19.10;99.90;;;;;;5064568;28;20394;-83
2021/03/20 07:49:32;;;;;;;98.00;13.75;;;19.10;99.90;;;;;;5066440;28;20493;-84
2021/03/20 07:52:06;;;;;;;47.97;8.30;;;19.10;99.90;;;;;;5064380;28;20396;-84
2021/03/20 07:54:36;;;;;;;27.02;4.38;;;19.00;99.90;;;;;;5072615;28;20394;-82
2021/03/20 07:57:11;;;;;;;25.38;3.90;;;18.80;99.90;;;;;;5084975;28;20388;-83
2021/03/20 07:59:50;;;;;;;25.35;4.43;;;18.70;99.90;;;;;;5063349;28;20397;-83
2021/03/20 08:02:40;;;;;;;23.30;4.07;;;18.60;99.90;;;;;;5066168;28;20394;-83
2021/03/20 08:05:56;;;;;;;25.07;4.73;;;18.50;99.90;;;;;;5077175;28;20410;-83
2021/03/20 08:09:00;;;;;;;28.17;4.40;;;18.50;99.90;;;;;;5081857;28;20896;-87
2021/03/20 08:11:34;;;;;;;35.00;5.13;;;18.50;99.90;;;;;;5074695;28;20416;-88
2021/03/20 08:14:31;;;;;;;44.80;5.93;;;18.50;99.90;;;;;;5085030;28;20475;-85
2021/03/20 08:17:00;;;;;;;48.20;6.18;;;18.60;99.90;;;;;;5062299;28;20389;-86
2021/03/20 08:19:31;;;;;;;50.10;6.82;;;18.60;99.90;;;;;;5065692;28;20465;-86
2021/03/20 08:22:33;;;;;;;52.17;7.15;;;18.60;99.90;;;;;;5065327;28;20755;-85
2021/03/20 08:25:36;;;;;;;67.37;8.90;;;18.60;99.90;;;;;;5071946;28;20884;-86
2021/03/20 08:28:03;;;;;;;59.83;7.67;;;18.70;99.90;;;;;;5064841;28;20412;-84
2021/03/20 08:30:59;;;;;;;57.67;7.80;;;18.70;99.90;;;;;;5061586;28;20386;-87
2021/03/20 08:33:38;;;;;;;63.13;7.47;;;18.80;99.90;;;;;;5062928;28;20883;-83
2021/03/20 08:36:30;;;;;;;54.25;7.70;;;18.80;99.90;;;;;;5058518;28;20404;-84
2021/03/20 08:39:24;;;;;;;67.07;8.48;;;18.80;99.90;;;;;;5046857;28;20392;-84
2021/03/20 08:42:22;;;;;;;61.15;8.63;;;18.80;99.90;;;;;;5046151;28;20383;-85
2021/03/20 08:45:17;;;;;;;65.35;9.30;;;18.80;99.90;;;;;;5045343;28;20368;-82
2021/03/20 08:48:06;;;;;;;55.33;7.63;;;18.90;99.90;;;;;;5045483;28;20453;-84
2021/03/20 08:51:02;;;;;;;57.13;8.15;;;19.00;99.90;;;;;;5045111;28;20445;-85
2021/03/20 08:53:40;;;;;;;59.45;8.90;;;19.00;99.90;;;;;;5050459;28;20736;-84
2021/03/20 08:56:34;;;;;;;51.53;7.90;;;18.90;99.90;;;;;;5050848;28;20419;-85
2021/03/20 08:59:02;;;;;;;47.67;7.03;;;18.90;99.90;;;;;;5052142;28;20394;-84
2021/03/20 09:01:44;;;;;;;54.88;8.25;;;18.90;99.90;;;;;;5029138;28;20783;-85
2021/03/20 09:04:24;;;;;;;43.73;7.40;;;18.90;99.90;;;;;;5034912;28;20494;-85
2021/03/20 09:06:58;;;;;;;23.60;3.47;;;18.90;99.90;;;;;;5045636;28;20418;-83
2021/03/20 09:09:25;;;;;;;22.03;3.27;;;18.50;99.90;;;;;;5064828;28;20859;-86
2021/03/20 09:11:58;;;;;;;18.45;3.35;;;18.30;99.90;;;;;;5032732;28;20400;-82
2021/03/20 09:14:37;;;;;;;19.70;3.10;;;18.20;99.90;;;;;;5061567;28;20378;-89
2021/03/20 09:17:29;;;;;;;10.32;1.85;;;18.00;99.90;;;;;;5066792;28;20439;-89
2021/03/20 09:20:10;;;;;;;12.05;1.70;;;17.90;99.90;;;;;;5038216;28;20421;-86
2021/03/20 09:22:46;;;;;;;15.27;1.90;;;17.90;99.90;;;;;;5058533;28;20380;-84
2021/03/20 09:25:28;;;;;;;16.85;2.67;;;18.00;99.90;;;;;;5058361;28;20422;-86
2021/03/20 09:28:04;;;;;;;24.23;2.85;;;18.00;99.90;;;;;;5052360;28;20378;-89
2021/03/20 09:30:45;;;;;;;20.38;3.47;;;18.10;99.90;;;;;;5053445;28;20390;-87
2021/03/20 09:33:27;;;;;;;32.35;4.38;;;18.10;99.90;;;;;;5046543;28;20394;-86
2021/03/20 09:36:24;;;;;;;38.45;5.57;;;18.20;99.90;;;;;;5067404;28;20417;-86
2021/03/20 09:38:59;;;;;;;44.10;6.25;;;18.30;99.90;;;;;;5068292;28;20861;-86
2021/03/20 09:41:29;;;;;;;34.70;5.53;;;18.30;99.90;;;;;;5068276;28;20469;-86
2021/03/20 09:44:02;;;;;;;38.70;5.43;;;18.50;99.90;;;;;;5068764;28;20800;-85
2021/03/20 09:46:43;;;;;;;45.80;7.13;;;18.50;99.90;;;;;;5067963;28;20410;-86
2021/03/20 09:49:15;;;;;;;38.28;6.63;;;18.60;99.90;;;;;;5068476;28;20467;-85
2021/03/20 09:51:53;;;;;;;41.50;7.10;;;18.70;99.90;;;;;;5062274;28;20935;-84
2021/03/20 09:54:29;;;;;;;36.43;5.57;;;18.80;99.90;;;;;;5068593;28;20923;-90
2021/03/20 09:57:11;;;;;;;51.90;9.18;;;18.80;99.90;;;;;;5066662;28;20382;-86
2021/03/20 09:59:38;;;;;;;66.00;11.25;;;18.80;99.90;;;;;;5067583;28;20393;-89
2021/03/20 10:02:11;;;;;;;72.75;13.32;;;18.90;99.90;;;;;;5068921;28;21061;-84
2021/03/20 10:05:19;;;;;;;98.40;14.02;;;18.90;99.90;;;;;;5067893;28;20413;-85
2021/03/20 10:08:22;;;;;;;100.70;14.53;;;18.90;99.90;;;;;;5064784;28;20518;-84
2021/03/20 10:10:52;;;;;;;118.32;16.17;;;18.90;99.90;;;;;;5068918;28;20381;-87
2021/03/20 10:13:23;;;;;;;92.75;13.45;;;18.80;99.90;;;;;;5066648;28;20394;-86
2021/03/20 10:16:03;;;;;;;89.50;12.37;;;18.80;99.90;;;;;;5068281;28;20493;-89
2021/03/20 10:18:43;;;;;;;75.72;11.73;;;18.80;99.90;;;;;;5068231;28;20383;-88
2021/03/20 10:21:27;;;;;;;84.80;12.48;;;18.70;99.90;;;;;;5066775;28;20383;-87
2021/03/20 10:24:19;;;;;;;88.43;13.75;;;18.70;99.90;;;;;;5068124;28;20427;-88
2021/03/20 10:27:01;;;;;;;73.13;11.57;;;18.70;99.90;;;;;;5050256;28;20486;-86
2021/03/20 10:29:36;;;;;;;84.57;12.75;;;18.70;99.90;;;;;;5067829;28;20393;-88
2021/03/20 10:32:14;;;;;;;86.45;13.35;;;18.60;99.90;;;;;;5068117;28;20417;-89
2021/03/20 10:34:50;;;;;;;74.55;12.18;;;18.60;99.90;;;;;;5068766;28;20443;-88
2021/03/20 10:37:19;;;;;;;77.15;10.93;;;18.60;99.90;;;;;;5068524;28;20426;-86
2021/03/20 10:39:48;;;;;;;91.05;12.48;;;18.50;99.90;;;;;;5099849;28;20390;-85
2021/03/20 10:42:31;;;;;;;79.35;10.88;;;18.50;99.90;;;;;;5067242;28;20370;-83
2021/03/20 10:45:02;;;;;;;72.97;12.45;;;18.50;99.90;;;;;;5067036;28;20382;-84
2021/03/20 10:47:36;;;;;;;86.07;13.35;;;18.50;99.90;;;;;;5067614;28;20402;-84
2021/03/20 10:50:15;;;;;;;87.47;12.82;;;18.50;99.90;;;;;;5067459;28;20436;-84
2021/03/20 10:52:43;;;;;;;89.22;12.68;;;18.40;99.90;;;;;;5067508;28;20431;-84
2021/03/20 10:55:26;;;;;;;86.55;12.98;;;18.50;99.90;;;;;;5066030;28;20466;-85
2021/03/20 10:57:54;;;;;;;84.93;13.87;;;18.50;99.90;;;;;;5067099;28;20371;-86
2021/03/20 11:00:43;;;;;;;90.50;13.32;;;18.50;99.90;;;;;;5065681;28;21145;-86
2021/03/20 11:03:22;;;;;;;79.45;13.52;;;18.60;99.90;;;;;;5067518;28;20370;-84
2021/03/20 11:05:49;;;;;;;86.55;13.80;;;18.60;99.90;;;;;;5066961;28;20436;-86
2021/03/20 11:08:29;;;;;;;87.47;13.85;;;18.70;99.90;;;;;;5066799;28;20466;-85
2021/03/20 11:11:17;;;;;;;92.20;14.80;;;18.70;99.90;;;;;;5066668;28;20394;-85
2021/03/20 11:13:51;;;;;;;89.68;13.52;;;18.80;99.90;;;;;;5067015;28;20382;-87
2021/03/20 11:16:30;;;;;;;79.88;13.25;;;18.70;99.90;;;;;;5066473;28;20416;-85
2021/03/20 11:19:05;;;;;;;87.38;13.98;;;18.70;99.90;;;;;;5067179;28;20382;-85
2021/03/20 11:21:36;;;;;;;63.92;11.10;;;18.70;99.90;;;;;;5066814;28;20370;-81
2021/03/20 11:24:34;;;;;;;74.07;10.65;;;18.80;99.90;;;;;;5068582;28;20380;-85
2021/03/20 11:27:39;;;;;;;52.87;8.50;;;18.70;99.90;;;;;;5067113;28;20508;-86
2021/03/20 11:30:20;;;;;;;61.28;10.10;;;18.60;99.90;;;;;;5043594;28;20400;-84
2021/03/20 11:32:49;;;;;;;48.17;7.80;;;18.50;99.90;;;;;;5064840;28;20389;-86
2021/03/20 11:35:35;;;;;;;51.55;8.35;;;18.40;99.90;;;;;;5067594;28;20382;-86
2021/03/20 11:38:04;;;;;;;53.17;8.67;;;18.20;99.90;;;;;;5067911;28;20382;-86
2021/03/20 11:40:43;;;;;;;65.10;9.90;;;18.10;99.90;;;;;;5056331;28;20929;-83
2021/03/20 11:43:27;;;;;;;70.40;9.63;;;18.20;99.90;;;;;;5061227;28;20789;-86
2021/03/20 11:46:16;;;;;;;71.22;12.88;;;18.20;99.90;;;;;;5066643;28;20469;-84
2021/03/20 11:48:55;;;;;;;74.30;12.23;;;18.30;99.90;;;;;;5048140;28;20483;-84
2021/03/20 11:51:47;;;;;;;77.10;14.00;;;18.30;99.90;;;;;;5063919;28;20411;-83
2021/03/20 11:54:37;;;;;;;84.32;13.77;;;18.40;99.90;;;;;;5064395;28;20386;-85
2021/03/20 11:57:11;;;;;;;87.28;13.65;;;18.40;99.90;;;;;;5045250;28;20458;-84
2021/03/20 11:59:42;;;;;;;82.95;13.63;;;18.40;99.90;;;;;;5046298;28;20874;-85
2021/03/20 12:02:39;;;;;;;94.23;15.27;;;18.50;99.90;;;;;;5048016;28;20508;-85
2021/03/20 12:05:24;;;;;;;87.73;14.60;;;18.50;99.90;;;;;;5028027;28;20406;-89
2021/03/20 12:07:52;;;;;;;103.73;15.90;;;18.50;99.90;;;;;;5066457;28;21144;-86
2021/03/20 12:10:25;;;;;;;99.07;14.40;;;18.50;99.90;;;;;;5060601;28;20405;-87
2021/03/20 12:12:55;;;;;;;91.43;14.80;;;18.50;99.90;;;;;;5051317;28;21202;-86
2021/03/20 12:15:51;;;;;;;107.47;17.35;;;18.50;99.90;;;;;;5066312;28;20473;-89
2021/03/20 12:18:23;;;;;;;109.10;17.33;;;18.60;99.90;;;;;;5067003;28;20374;-89
2021/03/20 12:20:50;;;;;;;97.07;16.03;;;18.60;99.90;;;;;;5059166;28;20474;-86
2021/03/20 12:23:25;;;;;;;113.28;16.38;;;18.60;99.90;;;;;;5062892;28;20380;-85
2021/03/20 12:25:55;;;;;;;108.50;17.15;;;18.60;99.90;;;;;;5034790;28;20825;-88
2021/03/20 12:28:38;;;;;;;91.72;15.63;;;18.60;99.90;;;;;;5063452;28;20397;-86
2021/03/20 12:31:16;;;;;;;83.38;13.77;;;18.60;99.90;;;;;;5052566;28;20407;-86
2021/03/20 12:33:47;;;;;;;97.30;14.85;;;18.60;99.90;;;;;;5046870;28;20426;-85
2021/03/20 12:36:41;;;;;;;92.15;14.82;;;18.60;99.90;;;;;;5056379;28;20389;-83
2021/03/20 12:39:14;;;;;;;94.15;13.45;;;18.50;99.90;;;;;;5066112;28;20398;-85
2021/03/20 12:41:44;;;;;;;93.63;15.43;;;18.50;99.90;;;;;;5066631;28;20424;-88
2021/03/20 12:44:28;;;;;;;101.73;16.77;;;18.50;99.90;;;;;;5066257;28;20447;-87
2021/03/20 12:47:04;;;;;;;80.95;13.32;;;18.50;99.90;;;;;;5066972;28;20405;-88
2021/03/20 12:49:34;;;;;;;90.45;13.02;;;18.40;99.90;;;;;;5065485;28;20413;-87
2021/03/20 12:52:03;;;;;;;84.15;12.93;;;18.30;99.90;;;;;;5064067;28;20745;-85
2021/03/20 12:54:41;;;;;;;72.40;12.00;;;18.30;99.90;;;;;;5065801;28;20427;-86
2021/03/20 12:57:12;;;;;;;87.10;14.68;;;18.30;99.90;;;;;;5065260;28;20390;-85
2021/03/20 12:59:39;;;;;;;80.95;12.52;;;18.20;99.90;;;;;;5066568;28;20385;-87
2021/03/20 13:02:07;;;;;;;84.45;13.80;;;18.20;99.90;;;;;;5066428;28;20417;-85
2021/03/20 13:04:34;;;;;;;86.70;12.97;;;18.20;99.90;;;;;;5066655;28;20406;-85
2021/03/20 13:07:01;;;;;;;83.32;13.23;;;18.20;99.90;;;;;;5070666;28;20915;-84
2021/03/20 13:09:28;;;;;;;94.10;14.02;;;18.20;99.90;;;;;;5069134;28;20378;-86
2021/03/20 13:11:55;;;;;;;96.55;13.73;;;18.20;99.90;;;;;;5070252;28;20385;-87
2021/03/20 13:14:22;;;;;;;95.13;14.95;;;18.20;99.90;;;;;;5070875;28;20431;-88
2021/03/20 13:16:50;;;;;;;87.10;14.10;;;18.30;99.90;;;;;;5070951;28;20382;-88
2021/03/20 13:19:17;;;;;;;90.95;14.23;;;18.30;99.90;;;;;;5070908;28;20378;-87
2021/03/20 13:21:44;;;;;;;93.72;14.13;;;18.30;99.90;;;;;;5072492;28;20393;-87
2021/03/20 13:24:11;;;;;;;104.80;16.90;;;18.30;99.90;;;;;;5072170;28;20381;-86
2021/03/20 13:26:38;;;;;;;93.20;14.57;;;18.30;99.90;;;;;;5073237;28;20441;-87
2021/03/20 13:29:06;;;;;;;96.00;15.13;;;18.30;99.90;;;;;;5073657;28;20448;-85
2021/03/20 13:31:34;;;;;;;89.07;15.43;;;18.30;99.90;;;;;;5071311;28;20394;-85
2021/03/20 13:34:01;;;;;;;98.75;15.65;;;18.40;99.90;;;;;;5075643;28;20857;-87